sensor_id;sensor_type;location;lat;lon;timestamp;pressure;altitude;pressure_sealevel;temperature;humidity
5988;BME280;3021;51.000;6.980;2023-04-02T00:03:44;67432.91;;;10.19;100.00
5988;BME280;3021;51.000;6.980;2023-04-02T00:09:16;67435.06;;;10.19;100.00
5988;BME280;3021;51.000;6.980;2023-04-02T00:11:49;67429.44;;;10.16;100.00
5988;BME280;3021;51.000;6.980;2023-04-02T00:14:24;67428.44;;;10.18;100.00
5988;BME280;3021;51.000;6.980;2023-04-02T00:16:51;67435.06;;;10.19;100.00
5988;BME280;3021;51.000;6.980;2023-04-02T00:22:16;67429.59;;;10.19;100.00
5988;BME280;3021;51.000;6.980;2023-04-02T00:24:42;67438.09;;;10.24;100.00
5988;BME280;3021;51.000;6.980;2023-04-02T00:27:12;67440.84;;;10.24;100.00
5988;BME280;3021;51.000;6.980;2023-04-02T00:29:49;67434.63;;;10.21;100.00
5988;BME280;3021;51.000;6.980;2023-04-02T00:32:22;67435.19;;;10.21;100.00
5988;BME280;3021;51.000;6.980;2023-04-02T00:34:53;67431.16;;;10.18;100.00
5988;BME280;3021;51.000;6.980;2023-04-02T00:37:21;67420.91;;;10.11;100.00
5988;BME280;3021;51.000;6.980;2023-04-02T00:40:06;67404.16;;;9.96;100.00
5988;BME280;3021;51.000;6.980;2023-04-02T00:42:34;67399.97;;;9.90;100.00
5988;BME280;3021;51.000;6.980;2023-04-02T00:45:03;67389.44;;;9.78;100.00
5988;BME280;3021;51.000;6.980;2023-04-02T00:47:36;67372.25;;;9.65;100.00
5988;BME280;3021;51.000;6.980;2023-04-02T00:52:43;67346.28;;;9.42;100.00
5988;BME280;3021;51.000;6.980;2023-04-02T00:55:36;67335.88;;;9.33;100.00
5988;BME280;3021;51.000;6.980;2023-04-02T00:58:04;67328.22;;;9.24;100.00
5988;BME280;3021;51.000;6.980;2023-04-02T01:00:39;67317.84;;;9.14;100.00
5988;BME280;3021;51.000;6.980;2023-04-02T01:05:43;67308.63;;;9.06;100.00
5988;BME280;3021;51.000;6.980;2023-04-02T01:11:01;67297.66;;;8.96;100.00
5988;BME280;3021;51.000;6.980;2023-04-02T01:13:47;67291.44;;;8.93;100.00
5988;BME280;3021;51.000;6.980;2023-04-02T01:16:34;67293.59;;;8.93;100.00
5988;BME280;3021;51.000;6.980;2023-04-02T01:24:43;67269.53;;;8.74;100.00
5988;BME280;3021;51.000;6.980;2023-04-02T01:29:43;67271.09;;;8.73;100.00
5988;BME280;3021;51.000;6.980;2023-04-02T01:32:16;67259.00;;;8.62;100.00
5988;BME280;3021;51.000;6.980;2023-04-02T01:34:45;67261.88;;;8.64;100.00
5988;BME280;3021;51.000;6.980;2023-04-02T01:37:37;67264.34;;;8.69;100.00
5988;BME280;3021;51.000;6.980;2023-04-02T01:45:36;67253.94;;;8.60;100.00
5988;BME280;3021;51.000;6.980;2023-04-02T01:48:12;67255.25;;;8.63;100.00
5988;BME280;3021;51.000;6.980;2023-04-02T01:50:39;67261.88;;;8.64;100.00
5988;BME280;3021;51.000;6.980;2023-04-02T01:53:09;67256.81;;;8.62;100.00
5988;BME280;3021;51.000;6.980;2023-04-02T01:58:04;67254.38;;;8.58;100.00
5988;BME280;3021;51.000;6.980;2023-04-02T02:00:31;67249.19;;;8.53;100.00
5988;BME280;3021;51.000;6.980;2023-04-02T02:03:00;67243.56;;;8.51;100.00
5988;BME280;3021;51.000;6.980;2023-04-02T02:05:26;67247.47;;;8.52;100.00
5988;BME280;3021;51.000;6.980;2023-04-02T02:07:54;67246.47;;;8.53;100.00
5988;BME280;3021;51.000;6.980;2023-04-02T02:10:26;67248.59;;;8.53;100.00
5988;BME280;3021;51.000;6.980;2023-04-02T02:12:53;67242.41;;;8.50;100.00
5988;BME280;3021;51.000;6.980;2023-04-02T02:15:21;67246.88;;;8.51;100.00
5988;BME280;3021;51.000;6.980;2023-04-02T02:17:48;67242.97;;;8.50;100.00
5988;BME280;3021;51.000;6.980;2023-04-02T02:20:15;67233.75;;;8.42;100.00
5988;BME280;3021;51.000;6.980;2023-04-02T02:22:48;67239.38;;;8.44;100.00
5988;BME280;3021;51.000;6.980;2023-04-02T02:25:18;67234.16;;;8.40;100.00
5988;BME280;3021;51.000;6.980;2023-04-02T02:35:29;67226.69;;;8.33;100.00
5988;BME280;3021;51.000;6.980;2023-04-02T02:38:20;67223.19;;;8.30;100.00
5988;BME280;3021;51.000;6.980;2023-04-02T02:40:48;67218.59;;;8.26;100.00
5988;BME280;3021;51.000;6.980;2023-04-02T02:43:16;67216.84;;;8.24;100.00
5988;BME280;3021;51.000;6.980;2023-04-02T02:45:42;67212.38;;;8.23;100.00
5988;BME280;3021;51.000;6.980;2023-04-02T02:48:12;67213.41;;;8.21;100.00
5988;BME280;3021;51.000;6.980;2023-04-02T02:50:39;67206.19;;;8.20;100.00
5988;BME280;3021;51.000;6.980;2023-04-02T02:53:15;67208.22;;;8.17;100.00
5988;BME280;3021;51.000;6.980;2023-04-02T02:55:41;67206.63;;;8.18;100.00
5988;BME280;3021;51.000;6.980;2023-04-02T02:58:10;67206.03;;;8.17;100.00
5988;BME280;3021;51.000;6.980;2023-04-02T03:00:38;67201.88;;;8.11;100.00
5988;BME280;3021;51.000;6.980;2023-04-02T03:03:08;67196.69;;;8.06;100.00
5988;BME280;3021;51.000;6.980;2023-04-02T03:05:36;67194.38;;;8.04;100.00
5988;BME280;3021;51.000;6.980;2023-04-02T03:08:05;67191.06;;;8.04;100.00
5988;BME280;3021;51.000;6.980;2023-04-02T03:13:34;67177.22;;;7.91;100.00
5988;BME280;3021;51.000;6.980;2023-04-02T03:18:54;67171.03;;;7.88;100.00
5988;BME280;3021;51.000;6.980;2023-04-02T03:21:45;67177.09;;;7.89;100.00
5988;BME280;3021;51.000;6.980;2023-04-02T03:24:37;67177.22;;;7.91;100.00
5988;BME280;3021;51.000;6.980;2023-04-02T03:27:13;67175.94;;;7.88;100.00
5988;BME280;3021;51.000;6.980;2023-04-02T03:29:51;67163.25;;;7.76;100.00
5988;BME280;3021;51.000;6.980;2023-04-02T03:32:22;67153.00;;;7.70;100.00
5988;BME280;3021;51.000;6.980;2023-04-02T03:34:54;67146.09;;;7.64;100.00
5988;BME280;3021;51.000;6.980;2023-04-02T03:40:01;67141.91;;;7.57;100.00
5988;BME280;3021;51.000;6.980;2023-04-02T03:42:50;67139.59;;;7.55;100.00
5988;BME280;3021;51.000;6.980;2023-04-02T03:45:21;67145.94;;;7.61;100.00
5988;BME280;3021;51.000;6.980;2023-04-02T03:48:06;67153.28;;;7.65;100.00
5988;BME280;3021;51.000;6.980;2023-04-02T03:50:40;67156.91;;;7.71;100.00
5988;BME280;3021;51.000;6.980;2023-04-02T03:53:08;67154.00;;;7.68;100.00
5988;BME280;3021;51.000;6.980;2023-04-02T03:55:37;67160.34;;;7.74;100.00
5988;BME280;3021;51.000;6.980;2023-04-02T03:58:19;67158.78;;;7.75;100.00
5988;BME280;3021;51.000;6.980;2023-04-02T04:06:05;67153.00;;;7.70;100.00
5988;BME280;3021;51.000;6.980;2023-04-02T04:08:53;67146.09;;;7.64;100.00
5988;BME280;3021;51.000;6.980;2023-04-02T04:11:31;67142.06;;;7.60;100.00
5988;BME280;3021;51.000;6.980;2023-04-02T04:14:05;67144.78;;;7.60;100.00
5988;BME280;3021;51.000;6.980;2023-04-02T04:16:39;67133.25;;;7.50;100.00
5988;BME280;3021;51.000;6.980;2023-04-02T04:19:16;67126.19;;;7.41;100.00
5988;BME280;3021;51.000;6.980;2023-04-02T04:21:46;67117.84;;;7.38;100.00
5988;BME280;3021;51.000;6.980;2023-04-02T04:24:18;67113.66;;;7.32;100.00
5988;BME280;3021;51.000;6.980;2023-04-02T04:26:55;67107.91;;;7.27;100.00
5988;BME280;3021;51.000;6.980;2023-04-02T04:32:38;67087.16;;;7.08;100.00
5988;BME280;3021;51.000;6.980;2023-04-02T04:35:21;67076.81;;;6.99;100.00
5988;BME280;3021;51.000;6.980;2023-04-02T04:37:49;67076.81;;;6.99;100.00
5988;BME280;3021;51.000;6.980;2023-04-02T04:40:25;67069.31;;;6.92;100.00
5988;BME280;3021;51.000;6.980;2023-04-02T04:42:55;67066.28;;;6.87;100.00
5988;BME280;3021;51.000;6.980;2023-04-02T04:50:58;67060.09;;;6.84;100.00
5988;BME280;3021;51.000;6.980;2023-04-02T04:53:27;67062.56;;;6.89;100.00
5988;BME280;3021;51.000;6.980;2023-04-02T04:55:59;67059.09;;;6.86;100.00
5988;BME280;3021;51.000;6.980;2023-04-02T05:01:45;67058.53;;;6.85;100.00
5988;BME280;3021;51.000;6.980;2023-04-02T05:06:59;67066.00;;;6.92;100.00
5988;BME280;3021;51.000;6.980;2023-04-02T05:09:35;67073.34;;;6.96;100.00
5988;BME280;3021;51.000;6.980;2023-04-02T05:17:33;67070.47;;;6.94;100.00
5988;BME280;3021;51.000;6.980;2023-04-02T05:22:47;67072.75;;;6.96;100.00
5988;BME280;3021;51.000;6.980;2023-04-02T05:25:25;67071.03;;;6.94;100.00
5988;BME280;3021;51.000;6.980;2023-04-02T05:30:39;67074.47;;;6.97;100.00
5988;BME280;3021;51.000;6.980;2023-04-02T05:33:21;67072.91;;;6.98;100.00
5988;BME280;3021;51.000;6.980;2023-04-02T05:35:50;67074.47;;;6.97;100.00
5988;BME280;3021;51.000;6.980;2023-04-02T05:38:24;67068.75;;;6.92;100.00
5988;BME280;3021;51.000;6.980;2023-04-02T05:40:58;67062.56;;;6.89;100.00
5988;BME280;3021;51.000;6.980;2023-04-02T05:43:25;67046.84;;;6.72;100.00
5988;BME280;3021;51.000;6.980;2023-04-02T05:45:53;67047.41;;;6.73;100.00
5988;BME280;3021;51.000;6.980;2023-04-02T05:48:33;67049.16;;;6.74;100.00
5988;BME280;3021;51.000;6.980;2023-04-02T05:51:02;67053.75;;;6.79;100.00
5988;BME280;3021;51.000;6.980;2023-04-02T05:53:32;67055.63;;;6.83;100.00
5988;BME280;3021;51.000;6.980;2023-04-02T05:56:17;67049.16;;;6.74;100.00
5988;BME280;3021;51.000;6.980;2023-04-02T05:59:10;67045.69;;;6.71;100.00
5988;BME280;3021;51.000;6.980;2023-04-02T06:01:45;67048.00;;;6.73;100.00
5988;BME280;3021;51.000;6.980;2023-04-02T06:04:18;67060.09;;;6.84;100.00
5988;BME280;3021;51.000;6.980;2023-04-02T06:06:58;67062.41;;;6.86;100.00
5988;BME280;3021;51.000;6.980;2023-04-02T06:09:35;67061.25;;;6.85;100.00
5988;BME280;3021;51.000;6.980;2023-04-02T06:14:37;67060.09;;;6.84;100.00
5988;BME280;3021;51.000;6.980;2023-04-02T06:17:03;67065.28;;;6.89;100.00
5988;BME280;3021;51.000;6.980;2023-04-02T06:19:31;67054.50;;;6.82;100.00
5988;BME280;3021;51.000;6.980;2023-04-02T06:22:30;67045.28;;;6.73;100.00
5988;BME280;3021;51.000;6.980;2023-04-02T06:25:08;67049.00;;;6.72;100.00
5988;BME280;3021;51.000;6.980;2023-04-02T06:27:37;67041.09;;;6.67;100.00
5988;BME280;3021;51.000;6.980;2023-04-02T06:30:04;67033.75;;;6.63;100.00
5988;BME280;3021;51.000;6.980;2023-04-02T06:32:31;67030.16;;;6.57;100.00
5988;BME280;3021;51.000;6.980;2023-04-02T06:34:57;67025.69;;;6.56;100.00
5988;BME280;3021;51.000;6.980;2023-04-02T06:37:35;67033.59;;;6.61;100.00
5988;BME280;3021;51.000;6.980;2023-04-02T06:40:03;67027.69;;;6.53;100.00
5988;BME280;3021;51.000;6.980;2023-04-02T06:42:37;67027.28;;;6.55;100.00
5988;BME280;3021;51.000;6.980;2023-04-02T06:45:03;67014.59;;;6.44;100.00
5988;BME280;3021;51.000;6.980;2023-04-02T06:47:32;67019.22;;;6.48;100.00
5988;BME280;3021;51.000;6.980;2023-04-02T06:52:39;67022.50;;;6.48;100.00
5988;BME280;3021;51.000;6.980;2023-04-02T06:55:30;67009.72;;;6.44;100.00
5988;BME280;3021;51.000;6.980;2023-04-02T06:57:57;67010.16;;;6.42;100.00
5988;BME280;3021;51.000;6.980;2023-04-02T07:00:38;67015.75;;;6.45;100.00
5988;BME280;3021;51.000;6.980;2023-04-02T07:03:07;67019.22;;;6.48;100.00
5988;BME280;3021;51.000;6.980;2023-04-02T07:05:37;67018.47;;;6.45;100.00
5988;BME280;3021;51.000;6.980;2023-04-02T07:08:02;67005.53;;;6.38;100.00
5988;BME280;3021;51.000;6.980;2023-04-02T07:10:28;67004.81;;;6.35;100.00
5988;BME280;3021;51.000;6.980;2023-04-02T07:12:53;67014.44;;;6.41;100.00
5988;BME280;3021;51.000;6.980;2023-04-02T07:15:19;67018.06;;;6.47;100.00
5988;BME280;3021;51.000;6.980;2023-04-02T07:17:45;67021.09;;;6.52;100.00
5988;BME280;3021;51.000;6.980;2023-04-02T07:22:50;67036.06;;;6.65;100.00
5988;BME280;3021;51.000;6.980;2023-04-02T07:25:15;67045.69;;;6.71;100.00
5988;BME280;3021;51.000;6.980;2023-04-02T07:27:40;67037.22;;;6.66;100.00
5988;BME280;3021;51.000;6.980;2023-04-02T07:30:06;67035.06;;;6.67;100.00
5988;BME280;3021;51.000;6.980;2023-04-02T07:32:32;67038.78;;;6.65;100.00
5988;BME280;3021;51.000;6.980;2023-04-02T07:34:57;67033.00;;;6.60;100.00
5988;BME280;3021;51.000;6.980;2023-04-02T07:37:22;67026.09;;;6.54;100.00
5988;BME280;3021;51.000;6.980;2023-04-02T07:39:48;67027.09;;;6.52;100.00
5988;BME280;3021;51.000;6.980;2023-04-02T07:42:13;67012.44;;;6.44;100.00
5988;BME280;3021;51.000;6.980;2023-04-02T07:44:38;67022.22;;;6.53;100.00
5988;BME280;3021;51.000;6.980;2023-04-02T07:47:04;67030.72;;;6.58;100.00
5988;BME280;3021;51.000;6.980;2023-04-02T07:49:29;67039.94;;;6.66;100.00
5988;BME280;3021;51.000;6.980;2023-04-02T07:51:54;67040.09;;;6.69;100.00
5988;BME280;3021;51.000;6.980;2023-04-02T07:54:20;67047.41;;;6.73;100.00
5988;BME280;3021;51.000;6.980;2023-04-02T07:56:45;67058.34;;;6.83;100.00
5988;BME280;3021;51.000;6.980;2023-04-02T07:59:11;67055.06;;;6.82;100.00
5988;BME280;3021;51.000;6.980;2023-04-02T08:01:36;67050.28;;;6.75;100.00
5988;BME280;3021;51.000;6.980;2023-04-02T08:04:03;67052.03;;;6.77;100.00
5988;BME280;3021;51.000;6.980;2023-04-02T08:06:29;67059.09;;;6.86;100.00
5988;BME280;3021;51.000;6.980;2023-04-02T08:08:56;67063.13;;;6.89;100.00
5988;BME280;3021;51.000;6.980;2023-04-02T08:11:22;67060.09;;;6.84;100.00
5988;BME280;3021;51.000;6.980;2023-04-02T08:13:47;67062.97;;;6.87;100.00
5988;BME280;3021;51.000;6.980;2023-04-02T08:16:13;67068.75;;;6.92;100.00
5988;BME280;3021;51.000;6.980;2023-04-02T08:18:39;67084.28;;;7.06;100.00
5988;BME280;3021;51.000;6.980;2023-04-02T08:21:06;67095.22;;;7.16;100.00
5988;BME280;3021;51.000;6.980;2023-04-02T08:23:33;67107.50;;;7.29;100.00
5988;BME280;3021;51.000;6.980;2023-04-02T08:25:59;67116.72;;;7.37;100.00
5988;BME280;3021;51.000;6.980;2023-04-02T08:28:25;67128.66;;;7.46;100.00
5988;BME280;3021;51.000;6.980;2023-04-02T08:30:50;67132.25;;;7.51;100.00
5988;BME280;3021;51.000;6.980;2023-04-02T08:33:17;67129.38;;;7.49;100.00
5988;BME280;3021;51.000;6.980;2023-04-02T08:35:44;67121.31;;;7.41;100.00
5988;BME280;3021;51.000;6.980;2023-04-02T08:38:13;67130.53;;;7.50;100.00
5988;BME280;3021;51.000;6.980;2023-04-02T08:40:41;67122.47;;;7.42;100.00
5988;BME280;3021;51.000;6.980;2023-04-02T08:43:32;67122.63;;;7.45;100.00
5988;BME280;3021;51.000;6.980;2023-04-02T08:48:30;67123.63;;;7.43;100.00
5988;BME280;3021;51.000;6.980;2023-04-02T08:50:57;67148.25;;;7.63;100.00
5988;BME280;3021;51.000;6.980;2023-04-02T08:53:29;67157.47;;;7.71;100.00
5988;BME280;3021;51.000;6.980;2023-04-02T08:56:19;67158.63;;;7.72;100.00
5988;BME280;3021;51.000;6.980;2023-04-02T08:58:50;67165.13;;;7.81;100.00
5988;BME280;3021;51.000;6.980;2023-04-02T09:03:46;67169.75;;;7.85;100.00
5988;BME280;3021;51.000;6.980;2023-04-02T09:06:16;67171.47;;;7.86;100.00
5988;BME280;3021;51.000;6.980;2023-04-02T09:08:44;67165.69;;;7.81;100.00
5988;BME280;3021;51.000;6.980;2023-04-02T09:13:44;67169.16;;;7.84;100.00
5988;BME280;3021;51.000;6.980;2023-04-02T09:16:16;67181.25;;;7.95;100.00
5988;BME280;3021;51.000;6.980;2023-04-02T09:18:43;67195.69;;;8.08;100.00
5988;BME280;3021;51.000;6.980;2023-04-02T09:21:30;67196.84;;;8.09;100.00
5988;BME280;3021;51.000;6.980;2023-04-02T09:23:57;67178.94;;;7.93;100.00
5988;BME280;3021;51.000;6.980;2023-04-02T09:26:28;67202.03;;;8.13;100.00
5988;BME280;3021;51.000;6.980;2023-04-02T09:29:19;67219.47;;;8.31;100.00
5988;BME280;3021;51.000;6.980;2023-04-02T09:34:34;67225.25;;;8.37;100.00
5988;BME280;3021;51.000;6.980;2023-04-02T09:37:20;67233.91;;;8.44;100.00
5988;BME280;3021;51.000;6.980;2023-04-02T09:39:49;67260.72;;;8.63;100.00
5988;BME280;3021;51.000;6.980;2023-04-02T09:42:33;67245.44;;;8.55;100.00
5988;BME280;3021;51.000;6.980;2023-04-02T09:45:19;67255.09;;;8.61;100.00
5988;BME280;3021;51.000;6.980;2023-04-02T09:47:46;67244.88;;;8.54;100.00
5988;BME280;3021;51.000;6.980;2023-04-02T09:52:47;67233.59;;;8.39;100.00
5988;BME280;3021;51.000;6.980;2023-04-02T09:57:45;67243.13;;;8.53;100.00
5988;BME280;3021;51.000;6.980;2023-04-02T10:02:45;67232.00;;;8.40;100.00
5988;BME280;3021;51.000;6.980;2023-04-02T10:05:20;67243.97;;;8.48;100.00
5988;BME280;3021;51.000;6.980;2023-04-02T10:07:51;67238.78;;;8.44;100.00
5988;BME280;3021;51.000;6.980;2023-04-02T10:10:40;67237.22;;;8.45;100.00
5988;BME280;3021;51.000;6.980;2023-04-02T10:15:58;67280.50;;;8.84;100.00
5988;BME280;3021;51.000;6.980;2023-04-02T10:18:47;67276.44;;;8.80;100.00
5988;BME280;3021;51.000;6.980;2023-04-02T10:21:26;67287.41;;;8.90;100.00
5988;BME280;3021;51.000;6.980;2023-04-02T10:23:53;67283.50;;;8.89;100.00
5988;BME280;3021;51.000;6.980;2023-04-02T10:29:29;67309.34;;;9.09;100.00
5988;BME280;3021;51.000;6.980;2023-04-02T10:32:04;67299.53;;;9.01;100.00
5988;BME280;3021;51.000;6.980;2023-04-02T10:40:10;67320.88;;;9.20;100.00
5988;BME280;3021;51.000;6.980;2023-04-02T10:42:43;67352.47;;;9.45;100.00
5988;BME280;3021;51.000;6.980;2023-04-02T10:48:23;67402.44;;;9.95;100.00
5988;BME280;3021;51.000;6.980;2023-04-02T10:56:11;67414.00;;;10.05;100.00
5988;BME280;3021;51.000;6.980;2023-04-02T10:59:12;67442.56;;;10.26;100.00
5988;BME280;3021;51.000;6.980;2023-04-02T11:01:42;67451.97;;;10.36;100.00
5988;BME280;3021;51.000;6.980;2023-04-02T11:04:26;67438.81;;;10.27;100.00
5988;BME280;3021;51.000;6.980;2023-04-02T11:07:09;67433.47;;;10.20;100.00
5988;BME280;3021;51.000;6.980;2023-04-02T11:09:42;67440.97;;;10.27;100.00
5988;BME280;3021;51.000;6.980;2023-04-02T11:12:37;67430.00;;;10.17;100.00
5988;BME280;3021;51.000;6.980;2023-04-02T11:15:17;67466.44;;;10.49;100.00
5988;BME280;3021;51.000;6.980;2023-04-02T11:17:44;67470.63;;;10.55;100.00
5988;BME280;3021;51.000;6.980;2023-04-02T11:20:54;67439.97;;;10.28;100.00
5988;BME280;3021;51.000;6.980;2023-04-02T11:23:20;67411.66;;;10.03;100.00
5988;BME280;3021;51.000;6.980;2023-04-02T11:25:46;67422.63;;;10.13;100.00
5988;BME280;3021;51.000;6.980;2023-04-02T11:28:13;67433.06;;;10.22;100.00
5988;BME280;3021;51.000;6.980;2023-04-02T11:30:46;67431.31;;;10.20;100.00
5988;BME280;3021;51.000;6.980;2023-04-02T11:35:55;67437.53;;;10.24;100.00
5988;BME280;3021;51.000;6.980;2023-04-02T11:48:43;67408.63;;;9.98;100.00
5988;BME280;3021;51.000;6.980;2023-04-02T11:53:57;67433.63;;;10.23;100.00
5988;BME280;3021;51.000;6.980;2023-04-02T12:04:24;67464.69;;;10.48;100.00
5988;BME280;3021;51.000;6.980;2023-04-02T12:09:51;67505.72;;;10.84;100.00
5988;BME280;3021;51.000;6.980;2023-04-02T12:12:44;67490.25;;;10.73;100.00
5988;BME280;3021;51.000;6.980;2023-04-02T12:17:51;67463.69;;;10.49;100.00
5988;BME280;3021;51.000;6.980;2023-04-02T12:20:21;67455.44;;;10.40;100.00
5988;BME280;3021;51.000;6.980;2023-04-02T12:22:50;67453.72;;;10.38;100.00
5988;BME280;3021;51.000;6.980;2023-04-02T12:28:14;67439.81;;;10.26;100.00
5988;BME280;3021;51.000;6.980;2023-04-02T12:30:42;67410.69;;;10.05;100.00
5988;BME280;3021;51.000;6.980;2023-04-02T12:33:33;67398.81;;;9.89;100.00
5988;BME280;3021;51.000;6.980;2023-04-02T12:36:06;67392.63;;;9.86;100.00
5988;BME280;3021;51.000;6.980;2023-04-02T12:38:49;67396.94;;;9.85;100.00
5988;BME280;3021;51.000;6.980;2023-04-02T12:41:25;67411.66;;;10.03;100.00
5988;BME280;3021;51.000;6.980;2023-04-02T12:44:05;67429.84;;;10.14;100.00
5988;BME280;3021;51.000;6.980;2023-04-02T12:46:33;67443.72;;;10.27;100.00
5988;BME280;3021;51.000;6.980;2023-04-02T12:49:12;67451.97;;;10.36;100.00
5988;BME280;3021;51.000;6.980;2023-04-02T12:51:43;67457.75;;;10.42;100.00
5988;BME280;3021;51.000;6.980;2023-04-02T12:54:14;67485.06;;;10.68;100.00
5988;BME280;3021;51.000;6.980;2023-04-02T12:56:41;67500.09;;;10.82;100.00
5988;BME280;3021;51.000;6.980;2023-04-02T12:59:28;67503.25;;;10.80;100.00
5988;BME280;3021;51.000;6.980;2023-04-02T13:01:59;67512.66;;;10.91;100.00
5988;BME280;3021;51.000;6.980;2023-04-02T13:04:25;67523.66;;;11.00;100.00
5988;BME280;3021;51.000;6.980;2023-04-02T13:06:51;67535.94;;;11.14;100.00
5988;BME280;3021;51.000;6.980;2023-04-02T13:09:29;67562.53;;;11.37;100.00
5988;BME280;3021;51.000;6.980;2023-04-02T13:11:55;67560.78;;;11.36;100.00
5988;BME280;3021;51.000;6.980;2023-04-02T13:14:23;67537.22;;;11.17;100.00
5988;BME280;3021;51.000;6.980;2023-04-02T13:16:48;67532.31;;;11.08;100.00
5988;BME280;3021;51.000;6.980;2023-04-02T13:19:32;67527.53;;;11.01;100.00
5988;BME280;3021;51.000;6.980;2023-04-02T13:22:00;67522.03;;;11.01;100.00
5988;BME280;3021;51.000;6.980;2023-04-02T13:24:31;67534.50;;;11.07;100.00
5988;BME280;3021;51.000;6.980;2023-04-02T13:27:01;67534.75;;;11.13;100.00
5988;BME280;3021;51.000;6.980;2023-04-02T13:29:27;67576.13;;;11.45;100.00
5988;BME280;3021;51.000;6.980;2023-04-02T13:31:57;67587.38;;;11.59;100.00
5988;BME280;3021;51.000;6.980;2023-04-02T13:34:23;67582.75;;;11.55;100.00
5988;BME280;3021;51.000;6.980;2023-04-02T13:36:48;67574.50;;;11.46;100.00
5988;BME280;3021;51.000;6.980;2023-04-02T13:39:14;67559.03;;;11.34;100.00
5988;BME280;3021;51.000;6.980;2023-04-02T13:41:44;67557.31;;;11.33;100.00
5988;BME280;3021;51.000;6.980;2023-04-02T13:44:17;67546.75;;;11.21;100.00
5988;BME280;3021;51.000;6.980;2023-04-02T13:46:43;67546.03;;;11.18;100.00
5988;BME280;3021;51.000;6.980;2023-04-02T13:49:09;67537.09;;;11.15;100.00
5988;BME280;3021;51.000;6.980;2023-04-02T13:51:42;67510.34;;;10.88;100.00
5988;BME280;3021;51.000;6.980;2023-04-02T13:56:46;67483.03;;;10.62;100.00
5988;BME280;3021;51.000;6.980;2023-04-02T13:59:12;67468.72;;;10.51;100.00
5988;BME280;3021;51.000;6.980;2023-04-02T14:01:38;67449.50;;;10.32;100.00
5988;BME280;3021;51.000;6.980;2023-04-02T14:04:04;67432.19;;;10.16;100.00
5988;BME280;3021;51.000;6.980;2023-04-02T14:09:58;67437.66;;;10.26;100.00
5988;BME280;3021;51.000;6.980;2023-04-02T14:18:36;67441.13;;;10.29;100.00
5988;BME280;3021;51.000;6.980;2023-04-02T14:21:09;67446.19;;;10.31;100.00
5988;BME280;3021;51.000;6.980;2023-04-02T14:23:44;67437.66;;;10.26;100.00
5988;BME280;3021;51.000;6.980;2023-04-02T14:26:31;67427.69;;;10.15;100.00
5988;BME280;3021;51.000;6.980;2023-04-02T14:29:15;67420.03;;;10.06;100.00
5988;BME280;3021;51.000;6.980;2023-04-02T14:31:54;67391.31;;;9.82;100.00
5988;BME280;3021;51.000;6.980;2023-04-02T14:34:42;67397.09;;;9.88;100.00
5988;BME280;3021;51.000;6.980;2023-04-02T14:43:27;67383.78;;;9.76;100.00
5988;BME280;3021;51.000;6.980;2023-04-02T14:45:58;67388.84;;;9.78;100.00
5988;BME280;3021;51.000;6.980;2023-04-02T14:51:12;67372.41;;;9.68;100.00
5988;BME280;3021;51.000;6.980;2023-04-02T14:54:10;67379.47;;;9.67;100.00
5988;BME280;3021;51.000;6.980;2023-04-02T14:56:51;67358.13;;;9.58;100.00
5988;BME280;3021;51.000;6.980;2023-04-02T14:59:26;67387.69;;;9.77;100.00
5988;BME280;3021;51.000;6.980;2023-04-02T15:04:43;67329.69;;;9.30;100.00
5988;BME280;3021;51.000;6.980;2023-04-02T15:07:35;67346.28;;;9.42;100.00
5988;BME280;3021;51.000;6.980;2023-04-02T15:10:23;67354.34;;;9.49;100.00
5988;BME280;3021;51.000;6.980;2023-04-02T15:12:51;67332.41;;;9.30;100.00
5988;BME280;3021;51.000;6.980;2023-04-02T15:17:51;67296.22;;;9.00;100.00
5988;BME280;3021;51.000;6.980;2023-04-02T15:20:18;67313.38;;;9.13;100.00
5988;BME280;3021;51.000;6.980;2023-04-02T15:22:54;67317.56;;;9.19;100.00
5988;BME280;3021;51.000;6.980;2023-04-02T15:28:29;67308.03;;;9.06;100.00
5988;BME280;3021;51.000;6.980;2023-04-02T15:31:02;67318.00;;;9.17;100.00
5988;BME280;3021;51.000;6.980;2023-04-02T15:36:39;67298.38;;;8.99;100.00
5988;BME280;3021;51.000;6.980;2023-04-02T15:39:16;67286.84;;;8.89;100.00
5988;BME280;3021;51.000;6.980;2023-04-02T15:42:03;67292.47;;;8.92;100.00
5988;BME280;3021;51.000;6.980;2023-04-02T15:44:43;67287.41;;;8.90;100.00
5988;BME280;3021;51.000;6.980;2023-04-02T15:50:33;67260.88;;;8.66;100.00
5988;BME280;3021;51.000;6.980;2023-04-02T15:56:18;67251.06;;;8.57;100.00
5988;BME280;3021;51.000;6.980;2023-04-02T16:01:47;67254.66;;;8.63;100.00
5988;BME280;3021;51.000;6.980;2023-04-02T16:10:29;67210.25;;;8.23;100.00
5988;BME280;3021;51.000;6.980;2023-04-02T16:12:55;67202.59;;;8.14;100.00
5988;BME280;3021;51.000;6.980;2023-04-02T16:15:39;67191.78;;;8.07;100.00
5988;BME280;3021;51.000;6.980;2023-04-02T16:18:11;67194.53;;;8.07;100.00
5988;BME280;3021;51.000;6.980;2023-04-02T16:20:43;67188.59;;;7.99;100.00
5988;BME280;3021;51.000;6.980;2023-04-02T16:23:13;67177.09;;;7.89;100.00
5988;BME280;3021;51.000;6.980;2023-04-02T16:28:30;67141.50;;;7.59;100.00
5988;BME280;3021;51.000;6.980;2023-04-02T16:34:30;67119.44;;;7.37;100.00
5988;BME280;3021;51.000;6.980;2023-04-02T16:39:33;67114.97;;;7.36;100.00
5988;BME280;3021;51.000;6.980;2023-04-02T16:42:11;67117.69;;;7.36;100.00
5988;BME280;3021;51.000;6.980;2023-04-02T16:48:08;67096.94;;;7.17;100.00
5988;BME280;3021;51.000;6.980;2023-04-02T16:53:42;67075.22;;;7.00;100.00
5988;BME280;3021;51.000;6.980;2023-04-02T17:04:13;67088.88;;;7.10;100.00
5988;BME280;3021;51.000;6.980;2023-04-02T17:10:01;67146.09;;;7.64;100.00
5988;BME280;3021;51.000;6.980;2023-04-02T17:13:25;67165.84;;;7.84;100.00
5988;BME280;3021;51.000;6.980;2023-04-02T17:16:49;67173.91;;;7.91;100.00
5988;BME280;3021;51.000;6.980;2023-04-02T17:18:47;67184.72;;;7.98;100.00
5988;BME280;3021;51.000;6.980;2023-04-02T17:21:17;67199.13;;;8.11;100.00
5988;BME280;3021;51.000;6.980;2023-04-02T17:23:48;67187.44;;;7.98;100.00
5988;BME280;3021;51.000;6.980;2023-04-02T17:26:15;67193.22;;;8.03;100.00
5988;BME280;3021;51.000;6.980;2023-04-02T17:28:42;67179.53;;;7.93;100.00
5988;BME280;3021;51.000;6.980;2023-04-02T17:33:43;67177.66;;;7.89;100.00
5988;BME280;3021;51.000;6.980;2023-04-02T17:36:33;67160.50;;;7.76;100.00
5988;BME280;3021;51.000;6.980;2023-04-02T17:39:22;67161.50;;;7.75;100.00
5988;BME280;3021;51.000;6.980;2023-04-02T17:42:05;67154.16;;;7.71;100.00
5988;BME280;3021;51.000;6.980;2023-04-02T17:47:22;67140.31;;;7.58;100.00